createdAt,value
2022-10-15T00:01:12.519Z,26.70
2022-10-15T00:03:41.661Z,27.67
2022-10-15T00:06:12.321Z,24.77
2022-10-15T00:08:40.962Z,26.23
2022-10-15T00:11:10.862Z,28.17
2022-10-15T00:13:42.001Z,31.50
2022-10-15T00:16:16.719Z,26.70
2022-10-15T00:18:45.161Z,24.67
2022-10-15T00:21:15.129Z,27.75
2022-10-15T00:23:42.820Z,23.98
2022-10-15T00:26:21.192Z,28.15
2022-10-15T00:28:52.982Z,23.88
2022-10-15T00:31:24.700Z,27.05
2022-10-15T00:33:53.783Z,29.60
2022-10-15T00:36:25.655Z,24.17
2022-10-15T00:38:53.624Z,22.00
2022-10-15T00:41:28.415Z,21.02
2022-10-15T00:43:58.377Z,23.67
2022-10-15T00:46:36.099Z,18.63
2022-10-15T00:49:14.098Z,23.58
2022-10-15T00:51:49.989Z,21.98
2022-10-15T00:54:17.734Z,26.80
2022-10-15T00:56:46.889Z,21.25
2022-10-15T00:59:14.665Z,21.55
2022-10-15T01:01:42.318Z,18.85
2022-10-15T01:04:10.020Z,20.17
2022-10-15T01:06:37.808Z,23.38
2022-10-15T01:09:05.473Z,22.60
2022-10-15T01:11:50.665Z,24.02
2022-10-15T01:14:54.708Z,18.27
2022-10-15T01:17:38.436Z,22.98
2022-10-15T01:20:27.490Z,28.88
2022-10-15T01:23:23.629Z,25.38
2022-10-15T01:26:31.936Z,48.67
2022-10-15T01:29:30.292Z,33.15
2022-10-15T01:32:07.991Z,42.22
2022-10-15T01:34:57.456Z,27.30
2022-10-15T01:37:50.950Z,20.60
2022-10-15T01:40:23.801Z,21.65
2022-10-15T01:42:58.041Z,23.60
2022-10-15T01:46:05.321Z,21.88
2022-10-15T01:48:44.552Z,46.15
2022-10-15T01:51:13.130Z,22.10
2022-10-15T01:53:41.918Z,26.55
2022-10-15T01:56:11.825Z,27.30
2022-10-15T01:58:41.563Z,19.13
2022-10-15T02:01:09.910Z,26.63
2022-10-15T02:04:16.625Z,24.60
2022-10-15T02:06:45.533Z,24.77
2022-10-15T02:09:22.975Z,21.52
2022-10-15T02:12:15.482Z,25.80
2022-10-15T02:14:46.548Z,29.30
2022-10-15T02:17:14.362Z,20.77
2022-10-15T02:19:53.227Z,22.33
2022-10-15T02:22:25.569Z,22.73
2022-10-15T02:24:58.420Z,27.58
2022-10-15T02:27:26.849Z,25.25
2022-10-15T02:29:55.219Z,26.58
2022-10-15T02:32:25.662Z,23.23
2022-10-15T02:34:53.888Z,24.70
2022-10-15T02:37:23.878Z,22.60
2022-10-15T02:39:51.500Z,23.55
2022-10-15T02:42:19.521Z,26.05
2022-10-15T02:44:54.893Z,21.70
2022-10-15T02:47:22.730Z,24.52
2022-10-15T02:49:50.378Z,23.50
2022-10-15T02:52:18.172Z,32.22
2022-10-15T02:54:47.444Z,28.73
2022-10-15T02:57:15.667Z,27.67
2022-10-15T02:59:44.628Z,27.33
2022-10-15T03:02:15.385Z,27.45
2022-10-15T03:04:46.850Z,25.73
2022-10-15T03:07:15.524Z,25.77
2022-10-15T03:09:43.724Z,24.58
2022-10-15T03:12:12.139Z,25.25
2022-10-15T03:14:39.976Z,25.05
2022-10-15T03:17:07.763Z,28.35
2022-10-15T03:19:36.165Z,23.70
2022-10-15T03:22:06.734Z,30.67
2022-10-15T03:24:43.393Z,27.95
2022-10-15T03:27:12.011Z,25.80
2022-10-15T03:29:40.327Z,19.92
2022-10-15T03:32:08.871Z,28.20
2022-10-15T03:34:37.613Z,25.70
2022-10-15T03:37:06.143Z,24.80
2022-10-15T03:39:33.868Z,31.02
2022-10-15T03:42:04.677Z,25.30
2022-10-15T03:44:38.505Z,32.40
2022-10-15T03:47:14.692Z,33.67
2022-10-15T03:49:50.001Z,89.25
2022-10-15T03:52:18.107Z,94.38
2022-10-15T03:54:47.698Z,34.95
2022-10-15T03:57:18.784Z,27.45
2022-10-15T03:59:52.049Z,27.00
2022-10-15T04:02:22.052Z,25.35
2022-10-15T04:04:53.013Z,21.70
2022-10-15T04:07:21.492Z,25.08
2022-10-15T04:09:49.601Z,24.08
2022-10-15T04:12:28.423Z,28.08
2022-10-15T04:17:27.092Z,17.83
2022-10-15T04:19:55.919Z,21.00
2022-10-15T04:22:23.829Z,20.00
2022-10-15T04:24:57.308Z,18.50
2022-10-15T04:27:27.669Z,129.63
2022-10-15T04:30:04.166Z,100.25
2022-10-15T04:32:32.382Z,59.85
2022-10-15T04:35:00.912Z,38.65
2022-10-15T04:37:47.772Z,30.33
2022-10-15T04:40:16.259Z,23.15
2022-10-15T04:42:43.811Z,21.13
2022-10-15T04:45:12.394Z,21.13
2022-10-15T04:47:41.310Z,21.17
2022-10-15T04:50:12.652Z,24.15
2022-10-15T04:52:59.738Z,28.95
2022-10-15T04:55:31.068Z,34.00
2022-10-15T04:58:00.722Z,35.40
2022-10-15T05:00:32.126Z,27.05
2022-10-15T05:03:09.507Z,26.05
2022-10-15T05:06:11.133Z,24.15
2022-10-15T05:08:44.302Z,23.98
2022-10-15T05:11:26.260Z,22.45
2022-10-15T05:13:56.964Z,18.88
2022-10-15T05:16:26.975Z,21.27
2022-10-15T05:18:56.923Z,20.10
2022-10-15T05:21:25.208Z,25.90
2022-10-15T05:23:57.542Z,22.45
2022-10-15T05:26:49.149Z,21.88
2022-10-15T05:29:17.234Z,22.70
2022-10-15T05:31:44.891Z,22.42
2022-10-15T05:34:19.182Z,21.45
2022-10-15T05:36:55.576Z,23.73
2022-10-15T05:39:25.372Z,22.23
2022-10-15T05:41:54.795Z,23.02
2022-10-15T05:44:32.587Z,23.10
2022-10-15T05:47:00.893Z,13.00
2022-10-15T05:49:28.958Z,18.17
2022-10-15T05:52:19.177Z,13.60
2022-10-15T05:55:05.929Z,8.95
2022-10-15T05:57:33.741Z,10.73
2022-10-15T06:00:08.124Z,10.30
2022-10-15T06:05:21.745Z,12.30
2022-10-15T06:07:52.389Z,11.38
2022-10-15T06:10:20.107Z,13.70
2022-10-15T06:12:58.799Z,11.30
2022-10-15T06:15:27.953Z,13.13
2022-10-15T06:17:55.709Z,16.90
2022-10-15T06:20:28.421Z,12.68
2022-10-15T06:23:00.066Z,9.00
2022-10-15T06:25:28.036Z,11.50
2022-10-15T06:27:56.033Z,12.88
2022-10-15T06:30:28.133Z,8.65
2022-10-15T06:32:55.921Z,8.02
2022-10-15T06:35:23.959Z,11.25
2022-10-15T06:37:51.768Z,10.23
2022-10-15T06:40:19.566Z,10.65
2022-10-15T06:42:49.090Z,9.65
2022-10-15T06:45:20.931Z,11.45
2022-10-15T06:47:49.624Z,9.30
2022-10-15T06:50:17.193Z,13.20
2022-10-15T06:52:45.041Z,13.68
2022-10-15T06:55:12.641Z,10.80
2022-10-15T06:57:43.191Z,11.87
2022-10-15T07:00:17.165Z,13.85
2022-10-15T07:02:44.980Z,9.73
2022-10-15T07:05:13.279Z,10.10
2022-10-15T07:07:41.143Z,13.63
2022-10-15T07:10:09.307Z,12.32
2022-10-15T07:12:41.677Z,9.88
2022-10-15T07:15:09.775Z,10.60
2022-10-15T07:17:39.470Z,9.60
2022-10-15T07:20:07.935Z,10.85
2022-10-15T07:22:35.647Z,11.18
2022-10-15T07:25:03.577Z,12.18
2022-10-15T07:27:31.404Z,10.55
2022-10-15T07:30:01.665Z,30.75
2022-10-15T07:32:29.580Z,14.82
2022-10-15T07:34:57.612Z,13.82
2022-10-15T07:37:26.353Z,11.77
2022-10-15T07:39:55.310Z,8.38
2022-10-15T07:42:23.027Z,8.77
2022-10-15T07:44:50.634Z,7.93
2022-10-15T07:47:18.274Z,8.43
2022-10-15T07:49:46.063Z,12.30
2022-10-15T07:52:14.469Z,8.30
2022-10-15T07:54:42.085Z,11.50
2022-10-15T07:57:12.219Z,10.50
2022-10-15T07:59:40.090Z,20.75
2022-10-15T08:02:17.026Z,33.00
2022-10-15T08:04:46.666Z,6.68
2022-10-15T08:07:14.270Z,7.78
2022-10-15T08:09:42.163Z,13.10
2022-10-15T08:12:12.143Z,6.45
2022-10-15T08:14:40.580Z,9.07
2022-10-15T08:17:15.369Z,6.38
2022-10-15T08:19:44.040Z,7.70
2022-10-15T08:22:13.455Z,5.15
2022-10-15T08:24:41.427Z,7.50
2022-10-15T08:27:09.062Z,7.45
2022-10-15T08:29:38.486Z,6.57
2022-10-15T08:32:06.094Z,6.63
2022-10-15T08:34:34.141Z,7.13
2022-10-15T08:37:03.387Z,7.05
2022-10-15T08:39:35.884Z,6.28
2022-10-15T08:42:06.204Z,8.18
2022-10-15T08:47:46.401Z,6.00
2022-10-15T08:50:26.042Z,4.97
2022-10-15T08:52:54.045Z,5.50
2022-10-15T08:57:55.757Z,5.22
2022-10-15T09:00:32.152Z,5.43
2022-10-15T09:02:59.840Z,7.28
2022-10-15T09:05:33.289Z,3.75
2022-10-15T09:08:27.156Z,6.80
2022-10-15T09:11:00.800Z,5.17
2022-10-15T09:13:31.047Z,3.50
2022-10-15T09:16:14.910Z,6.35
2022-10-15T09:18:46.763Z,2.78
2022-10-15T09:21:15.123Z,6.53
2022-10-15T09:23:43.990Z,5.72
2022-10-15T09:26:52.028Z,3.75
2022-10-15T09:29:28.141Z,6.15
2022-10-15T09:32:04.516Z,3.83
2022-10-15T09:34:38.944Z,3.72
2022-10-15T09:37:12.153Z,4.93
2022-10-15T09:39:54.614Z,3.58
2022-10-15T09:42:38.770Z,6.68
2022-10-15T09:45:10.337Z,4.10
2022-10-15T09:47:40.650Z,5.50
2022-10-15T09:50:11.712Z,5.32
2022-10-15T09:52:58.754Z,4.28
2022-10-15T09:55:49.460Z,6.35
2022-10-15T09:58:21.891Z,4.38
2022-10-15T10:01:01.280Z,7.18
2022-10-15T10:03:36.033Z,4.97
2022-10-15T10:06:11.363Z,5.00
2022-10-15T10:08:54.240Z,3.85
2022-10-15T10:11:23.476Z,5.00
2022-10-15T10:13:55.523Z,4.90
2022-10-15T10:16:23.262Z,4.35
2022-10-15T10:19:13.161Z,16.27
2022-10-15T10:21:43.252Z,5.03
2022-10-15T10:24:21.262Z,9.35
2022-10-15T10:26:48.818Z,6.10
2022-10-15T10:29:33.501Z,6.15
2022-10-15T10:32:34.570Z,4.65
2022-10-15T10:35:03.301Z,6.40
2022-10-15T10:37:41.695Z,7.90
2022-10-15T10:40:26.052Z,4.80
2022-10-15T10:43:16.953Z,5.40
2022-10-15T10:45:54.093Z,6.35
2022-10-15T10:48:27.221Z,4.57
2022-10-15T10:51:22.636Z,4.80
2022-10-15T10:54:06.063Z,4.95
2022-10-15T10:56:37.807Z,5.30
2022-10-15T10:59:21.160Z,5.78
2022-10-15T11:01:50.938Z,5.47
2022-10-15T11:04:26.025Z,7.10
2022-10-15T11:06:56.217Z,7.65
2022-10-15T11:09:32.532Z,5.72
2022-10-15T11:12:19.656Z,6.28
2022-10-15T11:15:19.061Z,3.67
2022-10-15T11:18:06.081Z,6.03
2022-10-15T11:20:57.787Z,7.97
2022-10-15T11:23:46.979Z,4.00
2022-10-15T11:26:52.132Z,5.78
2022-10-15T11:29:55.640Z,5.50
2022-10-15T11:33:06.776Z,4.53
2022-10-15T11:35:53.039Z,3.70
2022-10-15T11:38:23.885Z,5.07
2022-10-15T11:41:08.040Z,3.58
2022-10-15T11:43:53.890Z,4.53
2022-10-15T11:46:44.247Z,6.05
2022-10-15T11:49:50.957Z,4.65
2022-10-15T11:52:37.833Z,3.85
2022-10-15T11:55:17.379Z,5.38
2022-10-15T11:57:45.422Z,6.47
2022-10-15T12:00:36.218Z,5.15
2022-10-15T12:03:19.957Z,4.70
2022-10-15T12:05:58.814Z,3.55
2022-10-15T12:08:31.903Z,4.90
2022-10-15T12:11:06.348Z,4.03
2022-10-15T12:13:40.568Z,4.55
2022-10-15T12:16:28.612Z,9.07
2022-10-15T12:19:15.645Z,8.13
2022-10-15T12:21:45.695Z,5.28
2022-10-15T12:24:50.231Z,6.30
2022-10-15T12:27:20.876Z,7.15
2022-10-15T12:29:52.889Z,5.78
2022-10-15T12:32:27.355Z,5.45
2022-10-15T12:34:59.214Z,4.15
2022-10-15T12:37:28.200Z,6.47
2022-10-15T12:40:21.537Z,3.67
2022-10-15T12:43:17.756Z,3.60
2022-10-15T12:46:08.614Z,3.78
2022-10-15T12:48:44.147Z,4.40
2022-10-15T12:51:23.539Z,17.13
2022-10-15T12:53:51.930Z,3.63
2022-10-15T12:56:23.990Z,82.38
2022-10-15T12:58:52.936Z,5.72
2022-10-15T13:01:20.739Z,4.15
2022-10-15T13:03:49.490Z,8.13
2022-10-15T13:06:23.486Z,3.13
2022-10-15T13:09:00.273Z,5.78
2022-10-15T13:11:32.874Z,5.50
2022-10-15T13:14:26.207Z,20.83
2022-10-15T13:17:01.977Z,7.15
2022-10-15T13:19:39.725Z,5.32
2022-10-15T13:22:24.617Z,7.43
2022-10-15T13:24:53.307Z,6.13
2022-10-15T13:27:25.732Z,5.07
2022-10-15T13:30:14.431Z,5.85
2022-10-15T13:32:49.076Z,3.38
2022-10-15T13:35:29.371Z,22.13
2022-10-15T13:37:59.200Z,49.47
2022-10-15T13:40:30.409Z,16.67
2022-10-15T13:43:16.217Z,5.00
2022-10-15T13:45:53.698Z,7.03
2022-10-15T13:48:34.007Z,4.78
2022-10-15T13:51:03.689Z,7.50
2022-10-15T13:53:36.351Z,3.15
2022-10-15T13:56:18.048Z,5.20
2022-10-15T13:58:46.388Z,6.28
2022-10-15T14:01:14.856Z,7.85
2022-10-15T14:03:50.058Z,6.47
2022-10-15T14:06:25.339Z,6.40
2022-10-15T14:09:20.860Z,7.50
2022-10-15T14:11:52.816Z,7.80
2022-10-15T14:14:46.649Z,11.80
2022-10-15T14:17:22.915Z,38.08
2022-10-15T14:20:21.608Z,21.52
2022-10-15T14:22:44.182Z,25.70
2022-10-15T14:27:45.279Z,30.67
2022-10-15T14:30:43.221Z,210.00
2022-10-15T14:33:49.459Z,34.40
2022-10-15T14:36:20.201Z,52.72
2022-10-15T14:38:47.946Z,84.47
2022-10-15T14:41:54.944Z,297.70
2022-10-15T14:44:23.290Z,65.50
2022-10-15T14:46:53.249Z,23.98
2022-10-15T14:49:23.953Z,51.97
2022-10-15T14:52:08.281Z,26.33
2022-10-15T14:54:41.036Z,41.03
2022-10-15T14:57:19.158Z,53.85
2022-10-15T14:59:46.940Z,53.55
2022-10-15T15:02:16.111Z,50.50
2022-10-15T15:05:05.216Z,53.22
2022-10-15T15:07:32.967Z,45.63
2022-10-15T15:10:02.581Z,48.05
2022-10-15T15:12:31.789Z,42.28
2022-10-15T15:15:00.148Z,52.70
2022-10-15T15:17:29.119Z,47.03
2022-10-15T15:19:57.809Z,30.92
2022-10-15T15:22:28.617Z,28.77
2022-10-15T15:24:57.037Z,28.03
2022-10-15T15:27:29.877Z,24.30
2022-10-15T15:29:59.182Z,29.23
2022-10-15T15:32:27.625Z,28.85
2022-10-15T15:34:55.817Z,79.63
2022-10-15T15:37:24.084Z,46.75
2022-10-15T15:39:51.723Z,26.10
2022-10-15T15:42:23.946Z,46.17
2022-10-15T15:44:51.836Z,33.03
2022-10-15T15:47:20.495Z,39.65
2022-10-15T15:49:48.592Z,44.10
2022-10-15T15:52:19.059Z,46.63
2022-10-15T15:54:47.015Z,46.28
2022-10-15T15:57:15.905Z,43.10
2022-10-15T15:59:43.719Z,47.88
2022-10-15T16:02:12.079Z,45.08
2022-10-15T16:04:41.113Z,56.47
2022-10-15T16:07:11.723Z,51.65
2022-10-15T16:09:41.677Z,54.47
2022-10-15T16:12:09.246Z,51.95
2022-10-15T16:14:36.890Z,52.83
2022-10-15T16:17:04.626Z,53.25
2022-10-15T16:19:32.237Z,60.70
2022-10-15T16:21:59.984Z,70.13
2022-10-15T16:24:28.126Z,70.70
2022-10-15T16:26:55.733Z,107.57
2022-10-15T16:29:23.509Z,69.28
2022-10-15T16:31:51.641Z,73.28
2022-10-15T16:34:19.900Z,90.50
2022-10-15T16:36:47.713Z,89.15
2022-10-15T16:39:15.406Z,95.85
2022-10-15T16:41:43.104Z,81.43
2022-10-15T16:44:10.787Z,82.90
2022-10-15T16:46:38.470Z,137.27
2022-10-15T16:49:06.221Z,124.30
2022-10-15T16:51:35.623Z,103.45
2022-10-15T16:54:05.197Z,114.07
2022-10-15T16:56:34.648Z,114.93
2022-10-15T16:59:02.325Z,170.20
2022-10-15T17:01:30.254Z,153.65
2022-10-15T17:03:58.890Z,182.98
2022-10-15T17:06:28.325Z,189.82
2022-10-15T17:08:58.110Z,208.03
2022-10-15T17:11:33.577Z,181.43
2022-10-15T17:14:07.951Z,183.52
2022-10-15T17:16:39.773Z,192.88
2022-10-15T17:19:11.580Z,185.00
2022-10-15T17:21:42.345Z,197.95
2022-10-15T17:24:12.302Z,210.32
2022-10-15T17:26:40.801Z,212.88
2022-10-15T17:29:13.507Z,216.45
2022-10-15T17:31:41.376Z,214.40
2022-10-15T17:34:11.315Z,212.05
2022-10-15T17:36:45.028Z,201.45
2022-10-15T17:39:13.990Z,191.48
2022-10-15T17:41:42.184Z,199.80
2022-10-15T17:44:11.736Z,191.80
2022-10-15T17:46:43.057Z,182.63
2022-10-15T17:49:11.414Z,188.73
2022-10-15T17:51:40.690Z,184.35
2022-10-15T17:54:08.840Z,200.77
2022-10-15T17:56:37.054Z,162.43
2022-10-15T17:59:07.253Z,178.13
2022-10-15T18:04:25.364Z,188.52
2022-10-15T18:06:53.032Z,176.68
2022-10-15T18:09:27.094Z,156.48
2022-10-15T18:12:01.993Z,180.20
2022-10-15T18:14:32.515Z,178.07
2022-10-15T18:17:00.218Z,155.35
2022-10-15T18:19:28.361Z,170.18
2022-10-15T18:21:56.004Z,170.30
2022-10-15T18:24:24.276Z,164.82
2022-10-15T18:26:52.178Z,157.00
2022-10-15T18:29:20.170Z,156.40
2022-10-15T18:31:48.901Z,163.18
2022-10-15T18:34:18.859Z,168.10
2022-10-15T18:36:48.578Z,144.10
2022-10-15T18:39:16.237Z,156.73
2022-10-15T18:44:16.098Z,159.70
2022-10-15T18:46:45.191Z,154.55
2022-10-15T18:49:13.750Z,164.52
2022-10-15T18:51:41.713Z,157.73
2022-10-15T18:54:11.041Z,141.80
2022-10-15T18:56:39.347Z,143.07
2022-10-15T18:59:06.997Z,146.05
2022-10-15T19:01:35.823Z,136.45
2022-10-15T19:04:06.363Z,137.77
2022-10-15T19:06:36.860Z,146.93
2022-10-15T19:09:06.704Z,145.98
2022-10-15T19:11:37.580Z,149.82
2022-10-15T19:14:06.755Z,134.00
2022-10-15T19:16:34.434Z,153.75
2022-10-15T19:19:16.598Z,159.98
2022-10-15T19:21:44.788Z,194.32
2022-10-15T19:24:13.548Z,192.13
2022-10-15T19:26:41.197Z,223.10
2022-10-15T19:29:10.134Z,219.35
2022-10-15T19:31:39.992Z,190.48
2022-10-15T19:34:08.098Z,193.98
2022-10-15T19:36:38.215Z,154.23
2022-10-15T19:39:11.875Z,168.05
2022-10-15T19:41:40.885Z,157.82
2022-10-15T19:44:09.026Z,158.45
2022-10-15T19:46:36.980Z,158.05
2022-10-15T19:49:05.412Z,157.65
2022-10-15T19:51:33.556Z,143.55
2022-10-15T19:54:01.193Z,145.52
2022-10-15T19:56:33.085Z,143.63
2022-10-15T19:59:02.960Z,181.52
2022-10-15T20:01:30.812Z,142.55
2022-10-15T20:04:05.832Z,150.05
2022-10-15T20:06:36.238Z,147.05
2022-10-15T20:09:04.731Z,121.55
2022-10-15T20:11:32.607Z,145.95
2022-10-15T20:14:02.467Z,145.52
2022-10-15T20:16:33.073Z,126.22
2022-10-15T20:19:05.475Z,127.47
2022-10-15T20:21:34.619Z,129.45
2022-10-15T20:24:05.276Z,122.00
2022-10-15T20:26:33.144Z,132.65
2022-10-15T20:29:00.863Z,136.25
2022-10-15T20:31:32.991Z,130.73
2022-10-15T20:34:01.540Z,122.15
2022-10-15T20:36:29.890Z,130.60
2022-10-15T20:38:59.486Z,128.45
2022-10-15T20:41:27.937Z,117.07
2022-10-15T20:43:55.979Z,101.97
2022-10-15T20:46:27.719Z,115.32
2022-10-15T20:48:56.339Z,116.43
2022-10-15T20:51:27.645Z,112.45
2022-10-15T20:53:58.678Z,119.90
2022-10-15T20:56:26.378Z,102.93
2022-10-15T20:58:53.965Z,112.07
2022-10-15T21:01:22.383Z,120.93
2022-10-15T21:03:50.148Z,125.82
2022-10-15T21:06:18.052Z,117.85
2022-10-15T21:08:45.932Z,120.20
2022-10-15T21:11:13.608Z,119.63
2022-10-15T21:13:43.293Z,115.07
2022-10-15T21:16:10.983Z,127.05
2022-10-15T21:18:39.973Z,136.70
2022-10-15T21:21:11.915Z,106.80
2022-10-15T21:23:41.713Z,109.10
2022-10-15T21:26:14.082Z,102.00
2022-10-15T21:28:42.034Z,98.63
2022-10-15T21:31:16.941Z,109.97
2022-10-15T21:33:44.953Z,97.32
2022-10-15T21:36:13.690Z,97.90
2022-10-15T21:38:41.509Z,103.03
2022-10-15T21:41:09.124Z,97.28
2022-10-15T21:43:37.316Z,97.90
2022-10-15T21:46:09.880Z,87.45
2022-10-15T21:48:37.879Z,87.38
2022-10-15T21:51:08.885Z,79.88
2022-10-15T21:53:37.685Z,87.15
2022-10-15T21:56:05.814Z,58.05
2022-10-15T21:58:33.466Z,52.63
2022-10-15T22:01:15.953Z,71.03
2022-10-15T22:03:47.362Z,65.40
2022-10-15T22:06:15.376Z,72.03
2022-10-15T22:08:43.329Z,53.10
2022-10-15T22:11:17.827Z,59.50
2022-10-15T22:13:49.943Z,50.80
2022-10-15T22:16:17.749Z,44.15
2022-10-15T22:18:47.827Z,40.08
2022-10-15T22:21:21.598Z,50.28
2022-10-15T22:24:02.193Z,40.70
2022-10-15T22:26:32.776Z,36.70
2022-10-15T22:29:01.773Z,40.30
2022-10-15T22:31:29.854Z,40.72
2022-10-15T22:33:58.698Z,38.97
2022-10-15T22:36:27.969Z,43.08
2022-10-15T22:38:57.974Z,44.25
2022-10-15T22:41:25.878Z,39.05
2022-10-15T22:43:53.557Z,43.95
2022-10-15T22:46:21.290Z,38.05
2022-10-15T22:48:53.722Z,42.08
2022-10-15T22:51:21.634Z,36.92
2022-10-15T22:53:49.269Z,43.30
2022-10-15T22:56:18.808Z,45.33
2022-10-15T22:58:46.514Z,38.42
2022-10-15T23:01:22.498Z,29.05
2022-10-15T23:03:51.716Z,35.33
2022-10-15T23:06:19.957Z,41.53
2022-10-15T23:08:48.087Z,40.40
2022-10-15T23:11:34.058Z,42.30
2022-10-15T23:14:15.126Z,39.42
2022-10-15T23:16:44.396Z,39.10
2022-10-15T23:19:17.217Z,38.58
2022-10-15T23:21:46.732Z,39.90
2022-10-15T23:24:14.716Z,37.67
2022-10-15T23:26:42.595Z,36.03
2022-10-15T23:29:16.162Z,41.92
2022-10-15T23:31:43.832Z,34.47
2022-10-15T23:34:14.072Z,38.70
2022-10-15T23:36:41.940Z,36.70
2022-10-15T23:39:12.881Z,39.97
2022-10-15T23:41:41.919Z,38.20
2022-10-15T23:44:09.834Z,38.38
2022-10-15T23:46:38.328Z,37.40
2022-10-15T23:49:06.262Z,36.25
2022-10-15T23:51:34.899Z,43.00
2022-10-15T23:54:03.071Z,36.10
2022-10-15T23:56:31.312Z,35.38
2022-10-15T23:58:59.923Z,35.58
